Time;durP1;ratioP1;P1;durP2;ratioP2;P2;SDS_P1;SDS_P2;PMS_P1;PMS_P2;Temp;Humidity;BMP_temperature;BMP_pressure;BME280_temperature;BME280_humidity;BME280_pressure;Samples;Min_cycle;Max_cycle;Signal;HPM_P1;HPM_P2
2021/03/23 00:00:51;;;;;;;1.60;1.30;;;5.70;98.00;;;;;;5052350;28;20480;-66
2021/03/23 00:03:23;;;;;;;1.20;0.97;;;5.80;98.00;;;;;;5050238;28;20456;-66
2021/03/23 00:05:50;;;;;;;1.60;1.43;;;5.80;98.00;;;;;;5052356;28;20515;-66
2021/03/23 00:08:31;;;;;;;1.53;1.10;;;5.80;98.00;;;;;;5050075;28;20461;-66
2021/03/23 00:11:00;;;;;;;1.50;1.23;;;5.80;98.00;;;;;;5052179;28;20957;-66
2021/03/23 00:13:27;;;;;;;1.90;1.33;;;5.80;98.00;;;;;;5050014;28;20491;-66
2021/03/23 00:15:54;;;;;;;1.80;1.40;;;5.80;98.00;;;;;;5052174;28;20471;-66
2021/03/23 00:18:21;;;;;;;2.57;1.77;;;5.80;98.00;;;;;;5048834;28;20502;-67
2021/03/23 00:20:48;;;;;;;1.20;1.10;;;5.80;98.00;;;;;;5052074;28;20854;-66
2021/03/23 00:23:15;;;;;;;1.20;1.07;;;5.90;98.00;;;;;;5049813;28;20456;-66
2021/03/23 00:25:42;;;;;;;1.20;1.00;;;5.90;98.00;;;;;;5067226;28;20460;-66
2021/03/23 00:28:10;;;;;;;1.60;1.20;;;5.90;98.00;;;;;;5049938;28;20492;-66
2021/03/23 00:30:37;;;;;;;1.73;1.30;;;5.90;98.00;;;;;;5051925;28;20946;-66
2021/03/23 00:33:04;;;;;;;1.20;1.00;;;5.80;98.00;;;;;;5049742;28;20463;-66
2021/03/23 00:35:31;;;;;;;1.33;1.10;;;5.80;98.00;;;;;;5051765;28;20473;-66
2021/03/23 00:38:00;;;;;;;1.40;1.30;;;5.80;98.00;;;;;;5049961;28;20457;-66
2021/03/23 00:40:32;;;;;;;1.20;1.10;;;5.90;98.00;;;;;;5051677;28;20481;-66
2021/03/23 00:43:00;;;;;;;1.30;1.23;;;5.90;98.00;;;;;;5049449;28;20462;-66
2021/03/23 00:45:26;;;;;;;1.33;1.17;;;5.90;98.00;;;;;;5051593;28;20456;-66
2021/03/23 00:47:53;;;;;;;1.20;1.00;;;5.90;98.00;;;;;;5064816;28;20458;-66
2021/03/23 00:50:21;;;;;;;1.20;1.10;;;5.80;98.00;;;;;;5051655;28;20502;-66
2021/03/23 00:52:47;;;;;;;1.20;0.97;;;5.80;98.00;;;;;;5064107;28;20992;-66
2021/03/23 00:55:14;;;;;;;2.13;1.60;;;5.80;98.00;;;;;;5051626;28;20464;-66
2021/03/23 00:57:41;;;;;;;1.20;1.10;;;5.90;98.00;;;;;;5049304;28;20464;-66
2021/03/23 01:00:11;;;;;;;2.40;1.67;;;5.90;98.00;;;;;;5051349;28;20464;-66
2021/03/23 01:02:38;;;;;;;1.43;1.37;;;5.90;98.00;;;;;;5049012;28;20482;-66
2021/03/23 01:05:05;;;;;;;1.83;1.57;;;5.80;98.00;;;;;;5051209;28;20456;-66
2021/03/23 01:07:33;;;;;;;2.27;1.50;;;5.80;98.00;;;;;;5049115;28;20453;-66
2021/03/23 01:09:59;;;;;;;1.50;1.30;;;5.80;98.00;;;;;;5051298;28;20857;-66
2021/03/23 01:12:26;;;;;;;1.70;1.30;;;5.80;98.00;;;;;;5049275;28;20949;-67
2021/03/23 01:14:52;;;;;;;1.20;1.00;;;5.80;98.00;;;;;;5066372;28;20460;-67
2021/03/23 01:17:19;;;;;;;1.20;1.00;;;5.90;98.00;;;;;;5049041;28;20834;-67
2021/03/23 01:19:45;;;;;;;1.20;1.00;;;5.90;98.00;;;;;;5050960;28;20469;-66
2021/03/23 01:22:11;;;;;;;1.30;1.10;;;5.90;98.00;;;;;;5049036;28;20489;-67
2021/03/23 01:24:39;;;;;;;1.30;1.03;;;5.90;98.00;;;;;;5050957;28;20468;-67
2021/03/23 01:27:07;;;;;;;2.03;1.90;;;5.80;98.00;;;;;;5064113;28;20974;-67
2021/03/23 01:29:33;;;;;;;2.20;1.70;;;5.80;98.00;;;;;;5050916;28;20449;-67
2021/03/23 01:32:00;;;;;;;1.83;1.50;;;5.80;98.00;;;;;;5048575;28;20462;-67
2021/03/23 01:34:26;;;;;;;2.20;1.30;;;5.80;98.00;;;;;;5050844;28;20453;-67
2021/03/23 01:36:53;;;;;;;1.60;1.20;;;5.80;98.00;;;;;;5048529;28;20463;-67
2021/03/23 01:39:19;;;;;;;1.50;1.30;;;5.80;98.00;;;;;;5050889;28;20458;-67
2021/03/23 01:41:47;;;;;;;1.40;1.10;;;5.80;98.00;;;;;;5048663;28;20489;-67
2021/03/23 01:44:13;;;;;;;1.87;1.67;;;5.80;98.00;;;;;;5050425;28;20469;-66
2021/03/23 01:46:43;;;;;;;1.53;1.30;;;5.90;98.00;;;;;;5048317;28;20463;-67
2021/03/23 01:49:14;;;;;;;1.20;1.00;;;5.80;98.00;;;;;;5050546;28;20491;-67
2021/03/23 01:51:59;;;;;;;2.57;1.60;;;5.70;98.00;;;;;;5048146;28;21024;-67
2021/03/23 01:54:29;;;;;;;1.60;1.20;;;5.70;98.00;;;;;;5050285;28;20957;-67
2021/03/23 01:57:11;;;;;;;1.30;1.10;;;5.70;98.00;;;;;;5048756;28;20468;-67
2021/03/23 01:59:42;;;;;;;1.50;1.17;;;5.70;98.00;;;;;;5050076;28;20510;-67
2021/03/23 02:02:09;;;;;;;1.60;1.27;;;5.70;98.00;;;;;;5048744;28;20576;-67
2021/03/23 02:04:37;;;;;;;2.50;1.60;;;5.70;98.00;;;;;;5054711;28;20954;-67
2021/03/23 02:07:04;;;;;;;1.20;1.00;;;5.70;98.00;;;;;;5052723;28;20470;-67
2021/03/23 02:09:34;;;;;;;1.30;1.13;;;5.70;98.00;;;;;;5054918;28;20570;-67
2021/03/23 02:12:05;;;;;;;2.13;2.00;;;5.70;98.00;;;;;;5052575;28;20488;-67
2021/03/23 02:14:36;;;;;;;1.90;1.47;;;5.60;98.00;;;;;;5054731;28;20458;-67
2021/03/23 02:17:19;;;;;;;1.20;1.20;;;5.60;98.00;;;;;;5052507;28;20975;-67
2021/03/23 02:19:46;;;;;;;2.63;1.43;;;5.50;98.00;;;;;;5053365;28;20460;-67
2021/03/23 02:22:23;;;;;;;1.40;1.10;;;5.50;98.00;;;;;;5052050;28;21024;-67
2021/03/23 02:24:50;;;;;;;1.20;1.00;;;5.50;98.00;;;;;;5054323;28;20809;-66
2021/03/23 02:27:17;;;;;;;1.50;1.30;;;5.60;98.00;;;;;;5052217;28;20460;-67
2021/03/23 02:29:45;;;;;;;1.50;1.40;;;5.60;98.00;;;;;;5054102;28;20550;-67
2021/03/23 02:32:11;;;;;;;2.07;1.20;;;5.60;98.00;;;;;;5052008;28;20819;-67
2021/03/23 02:34:38;;;;;;;1.20;1.00;;;5.60;98.00;;;;;;5053995;28;20784;-66
2021/03/23 02:37:05;;;;;;;1.30;1.10;;;5.60;98.00;;;;;;5051965;28;20462;-66
2021/03/23 02:39:33;;;;;;;1.77;1.50;;;5.70;98.00;;;;;;5054062;28;20823;-67
2021/03/23 02:42:00;;;;;;;1.40;1.10;;;5.70;98.00;;;;;;5051836;28;21065;-67
2021/03/23 02:44:27;;;;;;;4.10;1.40;;;5.60;98.00;;;;;;5053684;28;20864;-66
2021/03/23 02:46:54;;;;;;;1.90;1.30;;;5.60;98.00;;;;;;5051673;28;20466;-67
2021/03/23 02:49:21;;;;;;;1.20;1.00;;;5.60;98.00;;;;;;5053844;28;20825;-67
2021/03/23 02:51:49;;;;;;;1.40;1.30;;;5.60;98.00;;;;;;5051568;28;20824;-67
2021/03/23 02:54:17;;;;;;;1.70;1.27;;;5.60;98.00;;;;;;5053688;28;20472;-66
2021/03/23 02:56:44;;;;;;;3.27;1.80;;;5.60;98.00;;;;;;5051479;28;20461;-67
2021/03/23 02:59:11;;;;;;;1.20;1.00;;;5.50;98.00;;;;;;5053765;28;20666;-66
2021/03/23 03:01:37;;;;;;;1.57;1.20;;;5.50;98.00;;;;;;5053688;28;20489;-66
2021/03/23 03:04:05;;;;;;;1.80;1.40;;;5.50;98.00;;;;;;5051498;28;20962;-66
2021/03/23 03:06:31;;;;;;;1.20;1.00;;;5.40;98.00;;;;;;5053581;28;20619;-66
2021/03/23 03:08:58;;;;;;;2.83;1.50;;;5.40;98.00;;;;;;5051120;28;20456;-66
2021/03/23 03:11:25;;;;;;;1.20;1.00;;;5.40;98.00;;;;;;5053623;28;20983;-66
2021/03/23 03:13:52;;;;;;;1.20;1.10;;;5.40;98.00;;;;;;5050505;28;20794;-66
2021/03/23 03:16:19;;;;;;;1.30;1.30;;;5.50;98.00;;;;;;5053160;28;20537;-66
2021/03/23 03:18:45;;;;;;;1.20;1.00;;;5.50;98.00;;;;;;5051278;28;20585;-66
2021/03/23 03:21:12;;;;;;;1.30;1.23;;;5.60;98.00;;;;;;5053016;28;20483;-66
2021/03/23 03:23:39;;;;;;;2.23;1.50;;;5.60;98.00;;;;;;5051100;28;20461;-66
2021/03/23 03:26:06;;;;;;;1.30;1.13;;;5.60;98.00;;;;;;5053416;28;20475;-66
2021/03/23 03:28:33;;;;;;;1.20;1.20;;;5.70;98.00;;;;;;5051505;28;20821;-66
2021/03/23 03:31:01;;;;;;;1.83;1.30;;;5.70;98.00;;;;;;5053457;28;20991;-66
2021/03/23 03:33:31;;;;;;;1.20;1.10;;;5.70;98.00;;;;;;5051206;28;20949;-66
2021/03/23 03:35:57;;;;;;;1.20;1.00;;;5.70;98.00;;;;;;5052732;28;20926;-66
2021/03/23 03:38:27;;;;;;;1.47;1.17;;;5.70;98.00;;;;;;5050800;28;20469;-66
2021/03/23 03:40:55;;;;;;;1.50;1.10;;;5.70;98.00;;;;;;5052754;28;20483;-66
2021/03/23 03:43:26;;;;;;;1.20;1.00;;;5.60;98.00;;;;;;5050436;28;20851;-66
2021/03/23 03:45:53;;;;;;;1.30;1.10;;;5.60;98.00;;;;;;5052850;28;20456;-66
2021/03/23 03:48:21;;;;;;;1.20;1.00;;;5.60;98.00;;;;;;5050528;28;20456;-66
2021/03/23 03:50:48;;;;;;;1.30;1.13;;;5.60;98.00;;;;;;5052864;28;20471;-66
2021/03/23 03:53:15;;;;;;;2.27;1.77;;;5.60;98.00;;;;;;5050767;28;20464;-66
2021/03/23 03:55:44;;;;;;;2.40;1.50;;;5.50;98.00;;;;;;5052622;28;20456;-66
2021/03/23 03:58:19;;;;;;;2.03;1.30;;;5.60;98.00;;;;;;5050468;28;20452;-66
2021/03/23 04:00:45;;;;;;;2.43;1.43;;;5.60;98.00;;;;;;5066753;28;20464;-66
2021/03/23 04:03:14;;;;;;;1.20;1.10;;;5.60;98.00;;;;;;5065730;28;20456;-66
2021/03/23 04:05:43;;;;;;;2.73;1.63;;;5.70;98.00;;;;;;5052133;28;20476;-66
2021/03/23 04:08:13;;;;;;;1.20;1.00;;;5.60;98.00;;;;;;5050440;28;20466;-66
2021/03/23 04:10:40;;;;;;;2.03;1.70;;;5.60;98.00;;;;;;5052202;28;20491;-66
2021/03/23 04:13:06;;;;;;;1.50;1.40;;;5.60;98.00;;;;;;5050112;28;21067;-66
2021/03/23 04:15:36;;;;;;;1.20;1.00;;;5.60;98.00;;;;;;5052145;28;20532;-66
2021/03/23 04:18:04;;;;;;;2.23;1.53;;;5.60;98.00;;;;;;5049988;28;20468;-66
2021/03/23 04:20:30;;;;;;;1.30;1.27;;;5.50;98.00;;;;;;5052200;28;20457;-66
2021/03/23 04:23:00;;;;;;;1.50;1.40;;;5.50;98.00;;;;;;5050209;28;20485;-66
2021/03/23 04:25:29;;;;;;;2.43;1.80;;;5.60;98.00;;;;;;5051946;28;20580;-66
2021/03/23 04:27:56;;;;;;;4.03;2.23;;;5.60;98.00;;;;;;5050083;28;20479;-66
2021/03/23 04:30:24;;;;;;;1.20;1.10;;;5.60;98.00;;;;;;5051732;28;20457;-66
2021/03/23 04:32:52;;;;;;;1.20;1.10;;;5.60;98.00;;;;;;5049777;28;20457;-66
2021/03/23 04:35:26;;;;;;;2.13;1.70;;;5.70;98.00;;;;;;5067062;28;20962;-66
2021/03/23 04:37:53;;;;;;;1.20;1.20;;;5.70;98.00;;;;;;5049908;28;20472;-66
2021/03/23 04:40:21;;;;;;;4.13;1.97;;;5.60;98.00;;;;;;5051920;28;20461;-66
2021/03/23 04:42:48;;;;;;;1.53;1.53;;;5.60;98.00;;;;;;5049472;28;20483;-66
2021/03/23 04:45:15;;;;;;;1.50;1.17;;;5.60;98.00;;;;;;5051641;28;20464;-66
2021/03/23 04:47:42;;;;;;;1.73;1.43;;;5.50;98.00;;;;;;5049910;28;20540;-66
2021/03/23 04:50:10;;;;;;;1.20;0.90;;;5.50;98.00;;;;;;5051628;28;20464;-66
2021/03/23 04:52:36;;;;;;;1.53;1.20;;;5.40;98.00;;;;;;5049610;28;20943;-66
2021/03/23 04:55:03;;;;;;;1.20;1.00;;;5.40;98.00;;;;;;5066693;28;20485;-66
2021/03/23 04:57:30;;;;;;;2.33;1.87;;;5.50;98.00;;;;;;5049209;28;20526;-66
2021/03/23 04:59:57;;;;;;;1.37;1.00;;;5.50;98.00;;;;;;5051294;28;20459;-66
2021/03/23 05:02:23;;;;;;;2.33;1.87;;;5.40;98.00;;;;;;5049001;28;20722;-66
2021/03/23 05:04:50;;;;;;;1.80;1.30;;;5.40;98.00;;;;;;5051314;28;20453;-66
2021/03/23 05:07:16;;;;;;;1.20;1.00;;;5.40;98.00;;;;;;5048986;28;20468;-66
2021/03/23 05:09:43;;;;;;;1.77;1.33;;;5.40;98.00;;;;;;5051224;28;20463;-66
2021/03/23 05:12:10;;;;;;;1.50;1.30;;;5.40;98.00;;;;;;5048907;28;20495;-66
2021/03/23 05:14:37;;;;;;;1.50;1.23;;;5.40;98.00;;;;;;5051162;28;20451;-66
2021/03/23 05:17:05;;;;;;;2.47;1.60;;;5.40;98.00;;;;;;5048951;28;20489;-67
2021/03/23 05:19:31;;;;;;;1.30;1.10;;;5.40;98.00;;;;;;5066181;28;20463;-66
2021/03/23 05:21:58;;;;;;;1.77;1.40;;;5.40;98.00;;;;;;5048945;28;20483;-67
2021/03/23 05:24:24;;;;;;;2.03;1.57;;;5.40;98.00;;;;;;5050801;28;20466;-66
2021/03/23 05:26:51;;;;;;;1.40;1.17;;;5.30;98.00;;;;;;5066174;28;20468;-66
2021/03/23 05:29:17;;;;;;;1.63;1.10;;;5.30;98.00;;;;;;5048391;28;20460;-66
2021/03/23 05:31:44;;;;;;;1.33;1.20;;;5.30;98.00;;;;;;5050829;28;20952;-66
2021/03/23 05:34:12;;;;;;;1.40;1.20;;;5.20;98.00;;;;;;5048427;28;20486;-66
2021/03/23 05:36:41;;;;;;;1.20;1.00;;;5.10;98.00;;;;;;5050690;28;21181;-66
2021/03/23 05:39:07;;;;;;;1.20;1.10;;;5.20;98.00;;;;;;5048706;28;20454;-66
2021/03/23 05:41:45;;;;;;;2.23;1.40;;;5.20;98.00;;;;;;5066084;28;20517;-66
2021/03/23 05:44:25;;;;;;;1.93;1.73;;;5.30;98.00;;;;;;5048566;28;21019;-66
2021/03/23 05:46:54;;;;;;;1.50;1.10;;;5.30;98.00;;;;;;5050647;28;20517;-66
2021/03/23 05:49:37;;;;;;;1.50;1.43;;;5.30;98.00;;;;;;5048359;28;20953;-68
2021/03/23 05:52:12;;;;;;;1.60;1.20;;;5.40;98.00;;;;;;5063709;28;20450;-67
2021/03/23 05:54:46;;;;;;;1.20;1.00;;;5.40;98.00;;;;;;5050469;28;20456;-66
2021/03/23 05:57:28;;;;;;;1.33;1.23;;;5.40;98.00;;;;;;5048421;28;20533;-66
2021/03/23 05:59:57;;;;;;;1.60;1.50;;;5.40;98.00;;;;;;5050133;28;20543;-66
2021/03/23 06:02:44;;;;;;;1.50;1.40;;;5.40;98.00;;;;;;5048633;28;20494;-67
2021/03/23 06:05:30;;;;;;;1.77;1.40;;;5.40;98.00;;;;;;5050436;28;20460;-66
2021/03/23 06:08:00;;;;;;;1.90;1.57;;;5.50;98.00;;;;;;5048610;28;20987;-66
2021/03/23 06:10:27;;;;;;;2.60;2.03;;;5.50;98.00;;;;;;5050395;28;20464;-66
2021/03/23 06:13:03;;;;;;;1.47;1.30;;;5.50;98.00;;;;;;5048817;28;20461;-66
2021/03/23 06:15:38;;;;;;;2.83;1.40;;;5.50;98.00;;;;;;5050839;28;20511;-66
2021/03/23 06:18:19;;;;;;;1.20;1.00;;;5.60;98.00;;;;;;5048818;28;20449;-66
2021/03/23 06:20:55;;;;;;;4.60;1.80;;;5.60;98.00;;;;;;5050591;28;20463;-67
2021/03/23 06:23:55;;;;;;;2.23;1.57;;;5.70;98.00;;;;;;5048144;28;20463;-66
2021/03/23 06:26:34;;;;;;;1.27;1.23;;;5.70;98.00;;;;;;5050328;28;20470;-65
2021/03/23 06:29:07;;;;;;;1.20;1.00;;;5.80;98.00;;;;;;5047976;28;20496;-66
2021/03/23 06:31:54;;;;;;;2.43;1.57;;;5.80;98.00;;;;;;5050202;28;20454;-65
2021/03/23 06:34:25;;;;;;;1.20;1.00;;;5.90;98.00;;;;;;5047907;28;20833;-65
2021/03/23 06:36:52;;;;;;;3.67;1.53;;;5.80;98.00;;;;;;5050186;28;20457;-66
2021/03/23 06:39:19;;;;;;;1.87;1.30;;;5.90;98.00;;;;;;5047939;28;20488;-66
2021/03/23 06:41:55;;;;;;;1.80;1.27;;;5.90;98.00;;;;;;5050085;28;20485;-66
2021/03/23 06:44:30;;;;;;;4.40;1.80;;;5.80;98.00;;;;;;5047464;28;20974;-66
2021/03/23 06:46:58;;;;;;;2.73;1.43;;;6.10;98.00;;;;;;5065350;28;20461;-66
2021/03/23 06:49:32;;;;;;;1.53;1.53;;;6.10;98.00;;;;;;5049986;28;20944;-66
2021/03/23 06:52:24;;;;;;;1.40;1.20;;;6.00;98.00;;;;;;5053896;28;20509;-66
2021/03/23 06:55:22;;;;;;;1.60;1.47;;;6.00;98.00;;;;;;5043590;28;20492;-66
2021/03/23 06:57:50;;;;;;;3.30;1.70;;;6.00;98.00;;;;;;5028220;28;20538;-66
2021/03/23 07:00:26;;;;;;;2.17;1.87;;;6.10;98.00;;;;;;5068743;28;20513;-66
2021/03/23 07:02:57;;;;;;;2.13;1.73;;;6.20;98.00;;;;;;5051445;28;21132;-66
2021/03/23 07:05:35;;;;;;;1.77;1.77;;;6.20;98.00;;;;;;5053570;28;20473;-66
2021/03/23 07:08:18;;;;;;;1.40;1.20;;;6.20;98.00;;;;;;5051370;28;20460;-66
2021/03/23 07:11:02;;;;;;;2.17;1.53;;;6.40;98.00;;;;;;5053559;28;20513;-66
2021/03/23 07:13:34;;;;;;;1.70;1.43;;;6.60;98.00;;;;;;5051294;28;20506;-66
2021/03/23 07:16:03;;;;;;;2.23;1.30;;;6.60;98.00;;;;;;5053333;28;20457;-66
2021/03/23 07:18:32;;;;;;;1.40;1.10;;;6.60;98.00;;;;;;5051330;28;20547;-66
2021/03/23 07:21:04;;;;;;;1.23;1.10;;;6.70;98.00;;;;;;5053176;28;20456;-66
2021/03/23 07:23:35;;;;;;;1.70;1.30;;;6.70;98.00;;;;;;5050965;28;20462;-67
2021/03/23 07:26:18;;;;;;;2.83;2.63;;;6.80;98.00;;;;;;5053092;28;20457;-68
2021/03/23 07:28:45;;;;;;;1.70;1.30;;;6.70;98.00;;;;;;5049679;28;20472;-66
2021/03/23 07:31:20;;;;;;;2.30;1.37;;;6.80;98.00;;;;;;5052868;28;20973;-66
2021/03/23 07:33:56;;;;;;;1.20;1.00;;;6.90;98.00;;;;;;5050522;28;20880;-66
2021/03/23 07:36:29;;;;;;;3.00;1.80;;;7.00;98.00;;;;;;5051380;28;20514;-66
2021/03/23 07:39:00;;;;;;;2.30;1.60;;;7.00;98.00;;;;;;5051249;28;20524;-66
2021/03/23 07:41:35;;;;;;;1.53;1.50;;;6.90;98.00;;;;;;5039673;28;20489;-66
2021/03/23 07:44:07;;;;;;;1.90;1.20;;;6.80;98.00;;;;;;5030963;28;20979;-66
2021/03/23 07:46:39;;;;;;;3.40;1.83;;;6.80;98.00;;;;;;5045831;28;20450;-66
2021/03/23 07:49:29;;;;;;;1.47;1.40;;;6.70;98.00;;;;;;5050958;28;20954;-66
2021/03/23 07:52:04;;;;;;;1.50;1.50;;;6.80;98.00;;;;;;5052675;28;20456;-66
2021/03/23 07:54:36;;;;;;;1.60;1.20;;;6.80;98.00;;;;;;5050736;28;20540;-66
2021/03/23 07:57:35;;;;;;;1.50;1.47;;;6.90;98.00;;;;;;5052569;28;20558;-66
2021/03/23 08:00:35;;;;;;;1.63;1.50;;;7.00;98.00;;;;;;5051891;28;20541;-66
2021/03/23 08:03:44;;;;;;;1.40;1.23;;;7.00;98.00;;;;;;5050296;28;20491;-66
2021/03/23 08:06:23;;;;;;;2.03;1.73;;;7.00;98.00;;;;;;5052334;28;20456;-66
2021/03/23 08:09:17;;;;;;;1.30;1.20;;;7.10;98.00;;;;;;5050433;28;20459;-66
2021/03/23 08:11:53;;;;;;;1.90;1.60;;;7.20;98.00;;;;;;5066175;28;20472;-66
2021/03/23 08:14:31;;;;;;;1.80;1.53;;;7.30;98.00;;;;;;5050201;28;20458;-66
2021/03/23 08:17:14;;;;;;;2.80;2.30;;;7.30;98.00;;;;;;5051055;28;20821;-66
2021/03/23 08:20:19;;;;;;;1.20;1.13;;;7.20;98.00;;;;;;5047120;28;20833;-66
2021/03/23 08:22:57;;;;;;;1.50;1.13;;;7.10;98.00;;;;;;5048543;28;20482;-67
2021/03/23 08:25:35;;;;;;;2.10;1.77;;;7.10;98.00;;;;;;5052086;28;20451;-66
2021/03/23 08:28:43;;;;;;;2.17;1.97;;;7.00;98.00;;;;;;5050000;28;20466;-66
2021/03/23 08:31:54;;;;;;;1.90;1.53;;;7.10;98.00;;;;;;5051023;28;20532;-66
2021/03/23 08:34:35;;;;;;;1.50;1.43;;;7.40;98.00;;;;;;5039371;28;20452;-66
2021/03/23 08:37:36;;;;;;;1.93;1.63;;;7.50;98.00;;;;;;5051827;28;20460;-66
2021/03/23 08:40:10;;;;;;;2.50;1.60;;;7.30;98.00;;;;;;5028458;28;20574;-66
2021/03/23 08:42:43;;;;;;;1.60;1.40;;;7.20;98.00;;;;;;5065473;28;20486;-66
2021/03/23 08:45:18;;;;;;;3.40;1.33;;;7.10;98.00;;;;;;5066217;28;20475;-66
2021/03/23 08:47:48;;;;;;;1.47;1.43;;;7.20;98.00;;;;;;5049934;28;21022;-66
2021/03/23 08:50:22;;;;;;;1.50;1.40;;;7.30;98.00;;;;;;5051642;28;20461;-66
2021/03/23 08:52:50;;;;;;;1.70;1.60;;;7.30;98.00;;;;;;5049938;28;20453;-66
2021/03/23 08:55:44;;;;;;;1.60;1.20;;;7.40;98.00;;;;;;5051956;28;20453;-66
2021/03/23 08:58:14;;;;;;;1.73;1.20;;;7.50;98.00;;;;;;5049738;28;20445;-66
2021/03/23 09:01:00;;;;;;;1.37;1.27;;;7.60;98.00;;;;;;5051921;28;20477;-66
2021/03/23 09:03:47;;;;;;;1.50;1.43;;;7.70;98.00;;;;;;5048577;28;20454;-66
2021/03/23 09:06:17;;;;;;;1.30;1.10;;;7.50;98.00;;;;;;5051532;28;20822;-67
2021/03/23 09:08:50;;;;;;;1.80;1.70;;;7.60;98.00;;;;;;5050092;28;20939;-66
2021/03/23 09:12:01;;;;;;;1.20;1.20;;;7.60;98.00;;;;;;5052087;28;20459;-66
2021/03/23 09:14:31;;;;;;;1.77;1.67;;;7.50;98.00;;;;;;5049059;28;20535;-66
2021/03/23 09:17:37;;;;;;;2.33;1.63;;;7.60;98.00;;;;;;5052033;28;20457;-66
2021/03/23 09:20:43;;;;;;;2.70;1.67;;;7.70;98.00;;;;;;5051779;28;20515;-67
2021/03/23 09:23:51;;;;;;;1.67;1.63;;;7.40;98.00;;;;;;5049406;28;20521;-67
2021/03/23 09:26:42;;;;;;;2.47;1.40;;;7.50;98.00;;;;;;5048909;28;21007;-66
2021/03/23 09:29:35;;;;;;;2.60;2.40;;;7.30;98.00;;;;;;5048102;28;20928;-68
2021/03/23 09:32:05;;;;;;;1.33;1.13;;;7.40;98.00;;;;;;5051386;28;20483;-67
2021/03/23 09:35:08;;;;;;;1.70;1.47;;;7.50;98.00;;;;;;5048956;28;20458;-67
2021/03/23 09:37:37;;;;;;;2.43;1.67;;;7.70;98.00;;;;;;5048699;28;20455;-67
2021/03/23 09:40:38;;;;;;;1.30;1.10;;;7.80;98.00;;;;;;5051059;28;20463;-67
2021/03/23 09:43:33;;;;;;;1.40;1.30;;;7.70;98.00;;;;;;5048489;28;20482;-68
2021/03/23 09:46:10;;;;;;;1.30;1.10;;;7.70;98.00;;;;;;5050923;28;20464;-67
2021/03/23 09:48:51;;;;;;;1.20;1.10;;;7.70;98.00;;;;;;5048354;28;20456;-67
2021/03/23 09:51:54;;;;;;;2.00;1.63;;;7.80;98.00;;;;;;5050877;28;20532;-68
2021/03/23 09:54:26;;;;;;;1.50;1.20;;;8.00;98.00;;;;;;5006202;28;20556;-68
2021/03/23 09:56:55;;;;;;;1.77;1.30;;;8.10;98.00;;;;;;5008350;28;21016;-67
2021/03/23 09:59:24;;;;;;;2.03;1.60;;;8.30;98.00;;;;;;5017449;28;20512;-67
2021/03/23 10:01:55;;;;;;;1.30;1.10;;;8.30;98.00;;;;;;5050550;28;20478;-66
2021/03/23 10:04:31;;;;;;;1.57;1.20;;;8.50;98.00;;;;;;5048562;28;20480;-65
2021/03/23 10:06:58;;;;;;;1.70;1.60;;;8.40;97.70;;;;;;5050694;28;20927;-67
2021/03/23 10:09:28;;;;;;;2.40;1.10;;;8.40;98.00;;;;;;5048192;28;20458;-66
2021/03/23 10:11:54;;;;;;;2.23;1.57;;;8.50;97.50;;;;;;5050721;28;20455;-67
2021/03/23 10:14:41;;;;;;;1.43;1.23;;;8.60;96.40;;;;;;5048320;28;21018;-67
2021/03/23 10:17:13;;;;;;;2.17;1.57;;;8.60;96.10;;;;;;5050309;28;20540;-67
2021/03/23 10:19:44;;;;;;;1.20;1.00;;;8.40;96.30;;;;;;5047844;28;20458;-67
2021/03/23 10:22:14;;;;;;;1.60;1.40;;;8.20;96.40;;;;;;5050257;28;20487;-66
2021/03/23 10:24:43;;;;;;;3.20;1.60;;;8.20;96.30;;;;;;5050751;28;20453;-67
2021/03/23 10:27:22;;;;;;;1.47;1.30;;;8.10;95.80;;;;;;5054394;28;20881;-67
2021/03/23 10:30:07;;;;;;;2.30;1.57;;;8.20;95.70;;;;;;5052801;28;20451;-67
2021/03/23 10:32:41;;;;;;;2.00;1.50;;;8.20;94.60;;;;;;5052142;28;20536;-67
2021/03/23 10:35:13;;;;;;;1.67;1.30;;;8.30;95.20;;;;;;5054589;28;20937;-67
2021/03/23 10:37:40;;;;;;;1.20;1.10;;;8.20;94.10;;;;;;5051969;28;20461;-66
2021/03/23 10:40:26;;;;;;;1.83;1.77;;;8.30;95.10;;;;;;5054317;28;20459;-67
2021/03/23 10:42:53;;;;;;;1.73;1.70;;;8.60;94.60;;;;;;5051681;28;20481;-67
2021/03/23 10:45:36;;;;;;;1.20;1.20;;;8.80;93.00;;;;;;5053901;28;20502;-67
2021/03/23 10:48:13;;;;;;;1.20;1.10;;;8.70;93.50;;;;;;5051610;28;20464;-67
2021/03/23 10:50:40;;;;;;;1.57;1.30;;;8.80;93.70;;;;;;5068015;28;20522;-67
2021/03/23 10:53:19;;;;;;;1.30;1.10;;;8.70;93.90;;;;;;5051646;28;20945;-67
2021/03/23 10:55:47;;;;;;;1.30;1.00;;;8.90;93.70;;;;;;5053461;28;20475;-67
2021/03/23 10:58:19;;;;;;;2.07;1.67;;;9.00;92.80;;;;;;5066426;28;20464;-67
2021/03/23 11:00:48;;;;;;;4.57;1.77;;;9.10;92.90;;;;;;5053416;28;20471;-67
2021/03/23 11:03:29;;;;;;;1.20;1.03;;;9.10;92.40;;;;;;5051690;28;20488;-67
2021/03/23 11:05:58;;;;;;;1.20;1.00;;;8.90;91.70;;;;;;5053451;28;20504;-67
2021/03/23 11:08:25;;;;;;;2.53;1.30;;;8.70;93.10;;;;;;5066272;28;20473;-67
2021/03/23 11:10:52;;;;;;;1.50;1.20;;;8.70;93.50;;;;;;5053100;28;20530;-67
2021/03/23 11:13:18;;;;;;;1.53;1.20;;;8.90;94.00;;;;;;5066188;28;20486;-67
2021/03/23 11:15:48;;;;;;;1.83;1.37;;;8.90;93.20;;;;;;5053015;28;20888;-67
2021/03/23 11:18:28;;;;;;;1.50;1.17;;;9.10;92.90;;;;;;5051365;28;20838;-67
2021/03/23 11:20:55;;;;;;;1.93;1.40;;;9.10;92.50;;;;;;5053380;28;20548;-67
2021/03/23 11:23:37;;;;;;;1.33;1.27;;;9.20;92.10;;;;;;5051258;28;20543;-67
2021/03/23 11:26:06;;;;;;;2.60;1.57;;;9.20;92.30;;;;;;5053109;28;20543;-67
2021/03/23 11:28:33;;;;;;;1.70;1.30;;;8.90;92.00;;;;;;5051753;28;20455;-67
2021/03/23 11:31:01;;;;;;;1.20;1.00;;;8.80;93.30;;;;;;5053831;28;20460;-67
2021/03/23 11:33:29;;;;;;;2.03;1.50;;;8.80;94.00;;;;;;5051747;28;20459;-67
2021/03/23 11:35:56;;;;;;;1.20;1.00;;;9.00;93.90;;;;;;5052603;28;20587;-67
2021/03/23 11:38:23;;;;;;;1.20;1.10;;;9.20;92.30;;;;;;5051101;28;20456;-67
2021/03/23 11:40:51;;;;;;;1.20;1.10;;;9.20;91.70;;;;;;5052853;28;20465;-67
2021/03/23 11:43:22;;;;;;;1.20;1.20;;;9.30;90.90;;;;;;5050812;28;20499;-67
2021/03/23 11:45:52;;;;;;;1.20;1.00;;;9.20;92.30;;;;;;5067542;28;20467;-67
2021/03/23 11:51:08;;;;;;;3.87;1.40;;;9.20;91.20;;;;;;5052570;28;20463;-67
2021/03/23 11:53:38;;;;;;;1.20;1.00;;;9.30;92.20;;;;;;5050714;28;20469;-67
2021/03/23 11:56:05;;;;;;;1.20;1.00;;;9.40;91.40;;;;;;5052466;28;20552;-67
2021/03/23 11:58:32;;;;;;;1.20;1.00;;;9.40;90.60;;;;;;5050450;28;20458;-67
2021/03/23 12:00:59;;;;;;;1.30;1.10;;;9.20;92.00;;;;;;5051955;28;20488;-67
2021/03/23 12:03:26;;;;;;;1.57;1.20;;;9.00;91.70;;;;;;5050553;28;20496;-67
2021/03/23 12:05:53;;;;;;;1.23;1.10;;;9.00;91.40;;;;;;5052244;28;20584;-67
2021/03/23 12:08:40;;;;;;;3.10;1.50;;;8.80;91.90;;;;;;5050132;28;20468;-67
2021/03/23 12:11:20;;;;;;;2.13;1.50;;;8.90;92.50;;;;;;5052269;28;21380;-67
2021/03/23 12:13:55;;;;;;;1.20;1.00;;;9.00;91.70;;;;;;5050155;28;20951;-66
2021/03/23 12:16:39;;;;;;;1.30;1.00;;;8.90;90.90;;;;;;5052212;28;20464;-67
2021/03/23 12:19:09;;;;;;;1.20;0.97;;;8.60;91.00;;;;;;5050511;28;20952;-67
2021/03/23 12:21:36;;;;;;;1.43;1.40;;;8.70;92.50;;;;;;5051963;28;20458;-67
2021/03/23 12:24:04;;;;;;;1.20;1.00;;;8.60;91.60;;;;;;5050524;28;20468;-67
2021/03/23 12:26:31;;;;;;;2.47;1.40;;;8.50;91.90;;;;;;5067489;28;20466;-67
2021/03/23 12:28:58;;;;;;;1.20;1.10;;;9.20;98.00;;;;;;5050193;28;20459;-66
2021/03/23 12:31:25;;;;;;;1.80;1.60;;;9.30;91.60;;;;;;5068008;28;20457;-66
2021/03/23 12:33:52;;;;;;;1.20;1.00;;;9.20;90.50;;;;;;5049315;28;20463;-66
2021/03/23 12:36:21;;;;;;;3.30;2.27;;;9.10;90.60;;;;;;5052978;28;20947;-67
2021/03/23 12:38:51;;;;;;;1.37;1.33;;;9.30;91.80;;;;;;5050677;28;20460;-66
2021/03/23 12:41:28;;;;;;;1.67;1.20;;;9.30;90.10;;;;;;5067923;28;20463;-66
2021/03/23 12:43:54;;;;;;;1.20;1.00;;;9.40;90.20;;;;;;5050341;28;20735;-66
2021/03/23 12:46:23;;;;;;;1.40;1.30;;;9.40;89.70;;;;;;5052543;28;20457;-65
2021/03/23 12:48:50;;;;;;;1.33;1.20;;;9.30;90.00;;;;;;5050346;28;20458;-65
2021/03/23 12:51:23;;;;;;;1.60;1.20;;;9.30;90.50;;;;;;5052809;28;20815;-65
2021/03/23 12:53:51;;;;;;;2.90;1.80;;;9.40;90.10;;;;;;5050288;28;20456;-64
2021/03/23 12:56:19;;;;;;;1.50;1.47;;;9.30;91.10;;;;;;5052256;28;20460;-65
2021/03/23 12:58:46;;;;;;;1.30;1.20;;;9.30;90.70;;;;;;5050413;28;20457;-65
2021/03/23 13:01:14;;;;;;;1.93;1.50;;;9.50;90.00;;;;;;5051888;28;20464;-65
2021/03/23 13:03:40;;;;;;;3.57;1.80;;;9.50;90.50;;;;;;5049724;28;20914;-65
2021/03/23 13:06:11;;;;;;;2.30;1.47;;;9.50;89.50;;;;;;5051468;28;20486;-66
2021/03/23 13:08:38;;;;;;;2.33;1.30;;;9.60;89.40;;;;;;5049679;28;20805;-65
2021/03/23 13:11:07;;;;;;;1.40;1.20;;;9.60;89.50;;;;;;5051403;28;20451;-66
2021/03/23 13:13:40;;;;;;;1.20;0.90;;;9.70;89.70;;;;;;5049740;28;20496;-65
2021/03/23 13:16:13;;;;;;;1.20;1.00;;;9.60;90.70;;;;;;5051496;28;20459;-65
2021/03/23 13:18:40;;;;;;;1.20;1.00;;;9.70;89.20;;;;;;5049626;28;20456;-65
2021/03/23 13:21:07;;;;;;;1.40;1.10;;;9.80;88.40;;;;;;5051743;28;20496;-65
2021/03/23 13:23:38;;;;;;;1.60;1.10;;;9.80;87.90;;;;;;5049661;28;20530;-67
2021/03/23 13:26:05;;;;;;;2.53;1.40;;;9.90;92.80;;;;;;5051233;28;20805;-66
2021/03/23 13:28:48;;;;;;;2.27;1.30;;;10.30;86.50;;;;;;5049443;28;20837;-67